FBSK/GBE METAR and TAF weather

Enter ICAO airport designator
Station Type Date Time Source
FBSK METAR 2022/01/26 20:00 UTC NOAA

FBSK 262000Z 13005KT CAVOK 25/15 Q1015 NOSIG


Station Type Date Time Source
FBSK Decoded METAR 2022/01/26 20:00 UTC NOAA

Seretse Khama International Airport, Botswana (FBSK) 24-13S 025-55E 1005M
Jan 26, 2022 - 03:00 PM EST / 2022.01.26 2000 UTC
Wind: from the SE (130 degrees) at 6 MPH (5 KT):0
Visibility: greater than 7 mile(s):0
Temperature: 77 F (25 C)
Dew Point: 59 F (15 C)
Relative Humidity: 53%
Pressure (altimeter): 29.97 in. Hg (1015 hPa)
ob: FBSK 262000Z 13005KT CAVOK 25/15 Q1015 NOSIG
cycle: 20

Station Type Date Time Source
FBSK TAF 2022/01/26 18:09 UTC NOAA

TAF TAF FBSK 261500Z 2618/2724 14005KT 9999 FEW030CB BKN070
BECMG 2621/2623 CAVOK
BECMG 2704/2706 11018KT BKN014
BECMG 2710/2712 SCT030 FEW035CB

Example: see airport list